• Join FlightAware (Why Join?)
  • Login
  • US Flag 
11:41AM EDT


 

Airport Tracker/Info


-or-


 

Live Flight TrackerFlight Track Log ✈ SWA34 ✈ 29-Apr-2013 ✈ KSTL - KCMH

Flight Track Log - Related Links

Times and Time Zones

All times are in EDT time to prevent confusion due to time zone crossing. See the SWA34 flight status page for this flight to view local times or setup timezone preferences in your user account.

Time Position Orientation Groundspeed Altitude Reporting Facility
EDT Latitude Longitude Course Direction KTS MPH feet Rate Location/Type
08:23PM 38.7333 -90.3167 90° East 151 174 2,100  Level Gateway (St. Louis) TRACON
08:24PM 38.7333 -90.2500 90° East 230 265 4,100 2,220 Climbing Gateway (St. Louis) TRACON
08:25PM 38.7467 -90.1447 81° East 247 284 6,800 2,760 Climbing Kansas City Center
08:26PM 38.7542 -90.0414 85° East 280 322 10,100 2,820 Climbing Kansas City Center
08:27PM 38.7631 -89.9233 84° East 322 371 12,700 3,000 Climbing Kansas City Center
08:28PM 38.7722 -89.7992 85° East 350 403 16,300 3,420 Climbing Kansas City Center
08:29PM 38.7822 -89.6472 85° East 369 425 19,800 3,060 Climbing Kansas City Center
08:30PM 38.7925 -89.5044 85° East 398 458 22,600 2,520 Climbing Kansas City Center
08:31PM 38.8111 -89.3583 81° East 413 475 25,100 2,340 Climbing Kansas City Center
08:32PM 38.8325 -89.1925 81° East 435 501 27,500 2,100 Climbing Kansas City Center
08:33PM 38.8519 -89.0342 81° East 449 517 29,500 1,740 Climbing Kansas City Center
08:34PM 38.8750 -88.8753 79° East 466 536 31,100 1,740 Climbing Kansas City Center
08:35PM 38.8967 -88.7072 81° East 477 549 33,100 2,040 Climbing Kansas City Center
08:36PM 38.9164 -88.5333 82° East 472 543 35,300 1,860 Climbing Kansas City Center
08:37PM 38.9672 -88.3825 67° East 461 531 37,000 1,500 Climbing Kansas City Center
08:38PM 39.0283 -88.2383 61° Northeast 457 526 38,400 1,020 Climbing Kansas City Center
08:39PM 39.0872 -88.0967 62° Northeast 459 528 39,000 300 Climbing Indianapolis Center
08:40PM 39.1511 -87.9492 61° Northeast 464 534 39,000  Level Indianapolis Center
08:41PM 39.2144 -87.8025 61° Northeast 466 536 39,000  Level Indianapolis Center
08:42PM 39.2764 -87.6558 61° Northeast 464 534 39,000  Level Indianapolis Center
08:43PM 39.3403 -87.5094 61° Northeast 462 532 39,000  Level Indianapolis Center
08:44PM 39.4022 -87.3608 62° Northeast 467 537 39,000  Level Indianapolis Center
08:45PM 39.4639 -87.2125 62° Northeast 466 536 39,000  Level Indianapolis Center
08:46PM 39.5214 -87.0608 64° Northeast 469 540 39,000  Level Indianapolis Center
08:47PM 39.5636 -86.8697 74° East 469 540 39,000 -300 Level Indianapolis Center
08:48PM 39.6031 -86.7058 73° East 472 543 38,500 -720 Descending Indianapolis Center
08:49PM 39.6414 -86.5439 73° East 468 539 37,600 -1,080 Descending Indianapolis Center
08:50PM 39.6811 -86.3753 73° East 470 541 36,300 -1,500 Descending Indianapolis Center
08:51PM 39.7183 -86.2122 73° East 471 542 34,600 -1,680 Descending Indianapolis Center
08:52PM 39.7586 -86.0364 73° East 473 544 32,900 -1,620 Descending Indianapolis Center
08:53PM 39.7964 -85.8725 73° East 473 544 31,300 -1,680 Descending Indianapolis Center
08:54PM 39.8333 -85.7106 73° East 468 539 29,500 -1,140 Descending Indianapolis Center
08:55PM 39.8697 -85.5511 73° East 460 529 29,000 -300 Descending Indianapolis Center
08:56PM 39.9056 -85.3928 74° East 456 525 29,000  Level Indianapolis Center
08:58PM 39.9406 -85.2333 74° East 456 525 29,000  Level Indianapolis Center
08:59PM 39.9753 -85.0733 74° East 457 526 29,000 -240 Level Indianapolis Center
09:00PM 40.0117 -84.9136 73° East 457 526 28,600 -780 Descending Indianapolis Center
09:01PM 40.0444 -84.7517 75° East 446 513 27,500 -1,080 Descending Indianapolis Center
09:02PM 40.0792 -84.5969 74° East 440 506 26,500 -1,020 Descending Indianapolis Center
09:03PM 40.1122 -84.4469 74° East 426 490 25,500 -1,020 Descending Indianapolis Center
09:04PM 40.1425 -84.2986 75° East 417 480 24,500 -1,080 Descending Indianapolis Center
09:05PM 40.1736 -84.1542 74° East 408 470 23,400 -1,440 Descending Indianapolis Center
09:06PM 40.2036 -84.0089 75° East 407 468 21,600 -1,980 Descending Indianapolis Center
09:06PM 40.2264 -83.9083 73° East 391 450 20,100 -2,100 Descending Indianapolis Center
09:07PM 40.2328 -83.8717 77° East 389 448 19,500 -2,100 Descending Indianapolis Center
09:07PM 40.2531 -83.7750 75° East 379 436 18,000 -2,100 Descending Indianapolis Center
09:08PM 40.2600 -83.7369 77° East 379 436 17,400 -2,280 Descending Indianapolis Center
09:08PM 40.2475 -83.6239 98° East 374 430 15,500 -2,340 Descending Indianapolis Center
09:09PM 40.2433 -83.6044 106° East 375 432 15,000 -3,060 Descending Indianapolis Center
09:10PM 40.2008 -83.4869 115° Southeast 379 436 12,100 -2,340 Descending Indianapolis Center
09:11PM 40.1667 -83.3469 108° East 364 419 10,300 -1,260 Descending Indianapolis Center
09:12PM 40.1378 -83.2164 106° East 317 365 9,300 -1,200 Descending Indianapolis Center
09:12PM 40.1258 -83.1586 105° East 292 336 8,400 -1,560 Descending Indianapolis Center
09:13PM 40.1233 -83.1111 94° East 296 341 7,700 -1,440 Descending Indianapolis Center
09:14PM 40.1208 -83.0164 92° East 285 328 6,400 -1,440 Descending Indianapolis Center
09:14PM 40.1169 -82.9533 95° East 277 319 5,500 -1,140 Descending Indianapolis Center
09:15PM 40.1164 -82.9069 91° East 275 316 5,200 -540 Descending Indianapolis Center
09:16PM 40.1142 -82.8231 92° East 239 275 4,700 -600 Descending Indianapolis Center
09:17PM 40.0978 -82.7683 111° Southeast 213 245 4,200 -600 Descending Indianapolis Center
09:17PM 40.0903 -82.7517 120° Southeast 225 259 4,100 -300 Descending Indianapolis Center
09:18PM 40.0686 -82.7053 121° Southeast 176 203 3,900 -420 Descending Indianapolis Center
09:19PM 40.0256 -82.7222 197° South 152 175 3,300 -660 Descending Indianapolis Center
09:20PM 40.0067 -82.7528 231° Southwest 153 176 2,700 -720 Descending Indianapolis Center
09:20PM 39.9975 -82.7689 233° Southwest 160 184 2,500 -840 Descending Indianapolis Center
09:21PM 39.9889 -82.7997 250° West 133 153 1,900 -840 Descending Indianapolis Center
09:21PM 39.9897 -82.8144 274° West 139 160 1,700 -720 Descending Indianapolis Center
09:22PM 39.9922 -82.8464 276° West 130 150 1,200 -540 Descending Indianapolis Center
09:22PM 39.9922 -82.8628 270° West 137 158 1,200  Level Indianapolis Center